createdAt,value
2023-01-20T00:01:12.152Z,98046.09
2023-01-20T00:03:40.793Z,98054.94
2023-01-20T00:06:09.302Z,98052.69
2023-01-20T00:08:37.397Z,98054.59
2023-01-20T00:11:07.071Z,98073.09
2023-01-20T00:13:35.317Z,98067.38
2023-01-20T00:16:05.893Z,98061.22
2023-01-20T00:18:35.128Z,98065.81
2023-01-20T00:21:04.715Z,98062.00
2023-01-20T00:23:32.847Z,98058.53
2023-01-20T00:26:04.396Z,98056.63
2023-01-20T00:28:32.477Z,98064.69
2023-01-20T00:31:00.624Z,98060.59
2023-01-20T00:33:31.435Z,98060.94
2023-01-20T00:35:59.506Z,98052.28
2023-01-20T00:38:27.756Z,98051.00
2023-01-20T00:40:56.041Z,98047.69
2023-01-20T00:43:24.416Z,98043.22
2023-01-20T00:45:52.493Z,98027.44
2023-01-20T00:48:20.646Z,98032.81
2023-01-20T00:50:50.311Z,98020.66
2023-01-20T00:53:18.741Z,98014.19
2023-01-20T00:55:46.759Z,98011.03
2023-01-20T00:58:14.791Z,98004.88
2023-01-20T01:00:42.998Z,98001.72
2023-01-20T01:03:11.560Z,98009.47
2023-01-20T01:05:39.560Z,98009.59
2023-01-20T01:08:10.059Z,98010.06
2023-01-20T01:10:38.273Z,98022.09
2023-01-20T01:13:06.992Z,98024.31
2023-01-20T01:15:35.153Z,98017.34
2023-01-20T01:18:03.196Z,98004.41
2023-01-20T01:20:31.897Z,98003.78
2023-01-20T01:22:59.961Z,97989.91
2023-01-20T01:25:29.470Z,97995.72
2023-01-20T01:27:57.673Z,97993.50
2023-01-20T01:30:25.727Z,97999.03
2023-01-20T01:32:53.695Z,97994.91
2023-01-20T01:35:21.750Z,98001.53
2023-01-20T01:37:49.823Z,98004.38
2023-01-20T01:40:18.571Z,98026.81
2023-01-20T01:42:48.172Z,98021.09
2023-01-20T01:45:23.273Z,98029.66
2023-01-20T01:48:00.189Z,98035.81
2023-01-20T01:50:33.174Z,98035.50
2023-01-20T01:53:02.139Z,98035.63
2023-01-20T01:55:32.632Z,98040.38
2023-01-20T01:58:04.212Z,98046.69
2023-01-20T02:00:32.530Z,98047.63
2023-01-20T02:03:01.181Z,98037.78
2023-01-20T02:05:31.557Z,98022.91
2023-01-20T02:08:00.483Z,98016.88
2023-01-20T02:10:28.721Z,98008.66
2023-01-20T02:12:57.035Z,97994.97
2023-01-20T02:15:32.377Z,98003.69
2023-01-20T02:18:26.268Z,97997.19
2023-01-20T02:21:47.944Z,98005.25
2023-01-20T02:24:54.054Z,98000.38
2023-01-20T02:27:29.777Z,97991.06
2023-01-20T02:30:23.665Z,97990.75
2023-01-20T02:32:59.934Z,97987.28
2023-01-20T02:35:36.084Z,97988.06
2023-01-20T02:38:14.759Z,97998.31
2023-01-20T02:40:51.288Z,98005.88
2023-01-20T02:43:24.522Z,98001.91
2023-01-20T02:45:58.993Z,97992.53
2023-01-20T02:48:36.232Z,97986.50
2023-01-20T02:51:10.459Z,97981.28
2023-01-20T02:53:45.005Z,97978.91
2023-01-20T02:56:14.086Z,97975.91
2023-01-20T02:58:47.565Z,97977.13
2023-01-20T03:01:21.692Z,97968.47
2023-01-20T03:03:53.865Z,97972.84
2023-01-20T03:06:26.477Z,97966.34
2023-01-20T03:08:56.156Z,97962.28
2023-01-20T03:11:24.374Z,97945.72
2023-01-20T03:13:59.349Z,97954.81
2023-01-20T03:16:27.875Z,97954.69
2023-01-20T03:18:57.589Z,97943.44
2023-01-20T03:21:26.020Z,97927.19
2023-01-20T03:23:57.305Z,97927.03
2023-01-20T03:26:25.421Z,97932.56
2023-01-20T03:28:54.683Z,97947.06
2023-01-20T03:31:26.315Z,97930.75
2023-01-20T03:33:58.546Z,97928.53
2023-01-20T03:36:28.614Z,97905.56
2023-01-20T03:38:58.155Z,97896.38
2023-01-20T03:41:34.912Z,97902.09
2023-01-20T03:44:12.660Z,97891.84
2023-01-20T03:46:46.189Z,97884.13
2023-01-20T03:49:20.903Z,97889.81
2023-01-20T03:52:01.029Z,97900.44
2023-01-20T03:54:36.267Z,97911.97
2023-01-20T03:57:09.551Z,97915.91
2023-01-20T03:59:41.528Z,97922.19
2023-01-20T04:02:12.316Z,97936.91
2023-01-20T04:04:44.576Z,97919.03
2023-01-20T04:07:18.272Z,97922.16
2023-01-20T04:09:52.108Z,97914.09
2023-01-20T04:12:20.365Z,97908.44
2023-01-20T04:14:48.490Z,97914.97
2023-01-20T04:17:16.992Z,97904.75
2023-01-20T04:19:46.548Z,97901.78
2023-01-20T04:22:21.980Z,97904.19
2023-01-20T04:24:54.243Z,97903.72
2023-01-20T04:27:22.341Z,97883.97
2023-01-20T04:29:50.441Z,97882.25
2023-01-20T04:32:18.484Z,97901.84
2023-01-20T04:34:47.955Z,97890.00
2023-01-20T04:37:16.034Z,97895.03
2023-01-20T04:39:44.057Z,97897.25
2023-01-20T04:42:12.781Z,97870.50
2023-01-20T04:44:40.899Z,97908.25
2023-01-20T04:47:09.017Z,97888.00
2023-01-20T04:49:37.113Z,97904.75
2023-01-20T04:52:06.682Z,97882.94
2023-01-20T04:54:34.919Z,97883.88
2023-01-20T04:57:03.032Z,97891.47
2023-01-20T04:59:31.175Z,97893.72
2023-01-20T05:01:59.499Z,97890.69
2023-01-20T05:04:27.727Z,97879.16
2023-01-20T05:06:55.706Z,97883.88
2023-01-20T05:09:25.280Z,97865.19
2023-01-20T05:11:53.353Z,97859.81
2023-01-20T05:14:21.415Z,97866.97
2023-01-20T05:16:49.477Z,97857.19
2023-01-20T05:19:20.202Z,97863.22
2023-01-20T05:21:48.327Z,97870.81
2023-01-20T05:24:16.442Z,97855.50
2023-01-20T05:26:45.882Z,97868.94
2023-01-20T05:29:13.995Z,97851.22
2023-01-20T05:31:43.659Z,97847.75
2023-01-20T05:34:12.335Z,97848.22
2023-01-20T05:36:40.408Z,97838.38
2023-01-20T05:39:08.488Z,97825.41
2023-01-20T05:41:36.586Z,97817.81
2023-01-20T05:44:06.297Z,97810.41
2023-01-20T05:46:34.435Z,97802.84
2023-01-20T05:49:03.143Z,97810.78
2023-01-20T05:51:32.204Z,97816.16
2023-01-20T05:54:00.481Z,97826.44
2023-01-20T05:56:28.583Z,97826.31
2023-01-20T05:58:57.112Z,97830.88
2023-01-20T06:01:26.592Z,97830.88
2023-01-20T06:03:54.718Z,97837.84
2023-01-20T06:06:22.919Z,97843.34
2023-01-20T06:08:53.433Z,97853.13
2023-01-20T06:11:21.950Z,97843.44
2023-01-20T06:13:50.675Z,97831.91
2023-01-20T06:16:19.605Z,97836.94
2023-01-20T06:18:49.075Z,97834.38
2023-01-20T06:21:17.118Z,97836.88
2023-01-20T06:23:45.177Z,97832.09
2023-01-20T06:26:14.899Z,97828.31
2023-01-20T06:28:43.284Z,97833.81
2023-01-20T06:31:13.172Z,97832.69
2023-01-20T06:33:41.750Z,97831.59
2023-01-20T06:36:13.776Z,97819.72
2023-01-20T06:38:42.125Z,97818.59
2023-01-20T06:41:16.539Z,97817.81
2023-01-20T06:43:45.232Z,97823.31
2023-01-20T06:46:15.285Z,97815.72
2023-01-20T06:48:44.264Z,97818.88
2023-01-20T06:51:15.412Z,97812.84
2023-01-20T06:53:43.861Z,97813.31
2023-01-20T06:56:13.444Z,97826.88
2023-01-20T06:58:41.922Z,97837.25
2023-01-20T07:01:13.337Z,97839.41
2023-01-20T07:03:43.182Z,97830.03
2023-01-20T07:06:18.499Z,97832.84
2023-01-20T07:08:47.406Z,97847.66
2023-01-20T07:11:15.568Z,97855.41
2023-01-20T07:13:43.883Z,97847.16
2023-01-20T07:16:15.358Z,97850.28
2023-01-20T07:18:44.171Z,97846.94
2023-01-20T07:21:12.989Z,97863.31
2023-01-20T07:23:42.508Z,97844.84
2023-01-20T07:26:12.342Z,97843.13
2023-01-20T07:28:42.633Z,97846.59
2023-01-20T07:31:12.778Z,97841.13
2023-01-20T07:33:41.125Z,97844.72
2023-01-20T07:36:10.748Z,97851.13
2023-01-20T07:38:38.983Z,97850.69
2023-01-20T07:41:16.129Z,97828.66
2023-01-20T07:43:44.968Z,97813.94
2023-01-20T07:46:13.492Z,97832.00
2023-01-20T07:48:42.098Z,97846.13
2023-01-20T07:51:12.660Z,97845.69
2023-01-20T07:53:43.630Z,97853.75
2023-01-20T07:56:15.497Z,97847.56
2023-01-20T07:58:45.349Z,97847.75
2023-01-20T08:01:15.977Z,97832.72
2023-01-20T08:03:45.069Z,97824.72
2023-01-20T08:06:14.988Z,97814.59
2023-01-20T08:08:43.579Z,97814.75
2023-01-20T08:11:14.848Z,97822.84
2023-01-20T08:13:43.868Z,97828.00
2023-01-20T08:16:14.357Z,97830.78
2023-01-20T08:18:43.228Z,97830.78
2023-01-20T08:21:20.220Z,97817.91
2023-01-20T08:23:48.683Z,97816.66
2023-01-20T08:26:19.466Z,97821.88
2023-01-20T08:28:48.345Z,97830.63
2023-01-20T08:31:19.213Z,97818.50
2023-01-20T08:33:47.943Z,97807.72
2023-01-20T08:36:17.830Z,97817.59
2023-01-20T08:38:45.987Z,97823.00
2023-01-20T08:41:16.851Z,97826.28
2023-01-20T08:43:46.972Z,97832.53
2023-01-20T08:46:17.814Z,97828.72
2023-01-20T08:48:46.207Z,97828.47
2023-01-20T08:51:18.002Z,97827.69
2023-01-20T08:53:46.235Z,97819.28
2023-01-20T08:56:15.153Z,97819.13
2023-01-20T08:58:43.437Z,97820.00
2023-01-20T09:01:15.737Z,97829.69
2023-01-20T09:03:52.390Z,97818.84
2023-01-20T09:06:32.326Z,97809.59
2023-01-20T09:09:00.428Z,97822.53
2023-01-20T09:11:28.543Z,97812.13
2023-01-20T09:13:57.700Z,97809.09
2023-01-20T09:16:27.165Z,97805.25
2023-01-20T09:18:56.419Z,97790.66
2023-01-20T09:21:24.720Z,97787.19
2023-01-20T09:23:52.892Z,97779.16
2023-01-20T09:26:34.939Z,97767.66
2023-01-20T09:29:09.575Z,97772.38
2023-01-20T09:31:41.192Z,97758.50
2023-01-20T09:34:09.272Z,97762.09
2023-01-20T09:36:37.611Z,97755.56
2023-01-20T09:39:22.983Z,97759.56
2023-01-20T09:42:14.411Z,97771.88
2023-01-20T09:44:50.261Z,97781.38
2023-01-20T09:47:30.946Z,97781.38
2023-01-20T09:50:44.171Z,97780.69
2023-01-20T09:53:26.051Z,97788.16
2023-01-20T09:55:56.178Z,97791.84
2023-01-20T09:58:34.139Z,97782.13
2023-01-20T10:01:12.712Z,97767.06
2023-01-20T10:03:49.752Z,97761.16
2023-01-20T10:06:24.859Z,97758.00
2023-01-20T10:09:05.458Z,97741.28
2023-01-20T10:11:39.512Z,97734.13
2023-01-20T10:14:15.162Z,97734.84
2023-01-20T10:16:50.311Z,97728.13
2023-01-20T10:19:27.262Z,97710.44
2023-01-20T10:22:06.347Z,97711.31
2023-01-20T10:24:40.870Z,97716.63
2023-01-20T10:27:09.026Z,97707.75
2023-01-20T10:29:39.945Z,97703.91
2023-01-20T10:32:14.883Z,97703.56
2023-01-20T10:34:46.596Z,97701.47
2023-01-20T10:37:15.977Z,97700.69
2023-01-20T10:39:48.107Z,97693.28
2023-01-20T10:42:17.935Z,97692.16
2023-01-20T10:44:47.975Z,97689.47
2023-01-20T10:47:42.979Z,97691.97
2023-01-20T10:50:45.479Z,97693.28
2023-01-20T10:53:41.000Z,97695.97
2023-01-20T10:56:37.674Z,97710.78
2023-01-20T10:59:11.178Z,97697.91
2023-01-20T11:01:39.608Z,97688.75
2023-01-20T11:04:18.389Z,97687.97
2023-01-20T11:06:52.043Z,97683.34
2023-01-20T11:09:28.399Z,97677.44
2023-01-20T11:11:58.902Z,97672.09
2023-01-20T11:14:27.326Z,97663.34
2023-01-20T11:17:01.079Z,97640.16
2023-01-20T11:19:45.135Z,97638.16
2023-01-20T11:22:20.848Z,97643.91
2023-01-20T11:24:49.854Z,97651.22
2023-01-20T11:27:21.516Z,97658.97
2023-01-20T11:29:52.936Z,97657.50
2023-01-20T11:32:29.785Z,97666.44
2023-01-20T11:34:58.933Z,97673.06
2023-01-20T11:37:37.499Z,97673.97
2023-01-20T11:40:20.151Z,97662.44
2023-01-20T11:42:49.767Z,97660.97
2023-01-20T11:45:31.217Z,97664.00
2023-01-20T11:48:16.954Z,97658.97
2023-01-20T11:50:50.149Z,97651.66
2023-01-20T11:53:24.933Z,97652.69
2023-01-20T11:55:56.215Z,97652.34
2023-01-20T11:58:26.266Z,97650.34
2023-01-20T12:01:01.922Z,97648.31
2023-01-20T12:04:14.727Z,97642.50
2023-01-20T12:06:52.485Z,97637.53
2023-01-20T12:09:27.939Z,97634.66
2023-01-20T12:12:00.522Z,97618.59
2023-01-20T12:14:33.197Z,97623.34
2023-01-20T12:17:17.021Z,97621.78
2023-01-20T12:20:06.670Z,97624.69
2023-01-20T12:22:45.275Z,97620.75
2023-01-20T12:25:20.057Z,97614.16
2023-01-20T12:27:54.855Z,97596.22
2023-01-20T12:30:55.729Z,97603.00
2023-01-20T12:33:29.993Z,97591.91
2023-01-20T12:36:20.867Z,97601.88
2023-01-20T12:39:18.589Z,97610.41
2023-01-20T12:42:19.582Z,97610.91
2023-01-20T12:44:51.259Z,97595.06
2023-01-20T12:47:32.731Z,97580.34
2023-01-20T12:50:28.394Z,97587.50
2023-01-20T12:53:16.825Z,97572.34
2023-01-20T12:55:56.949Z,97569.06
2023-01-20T12:58:40.346Z,97569.84
2023-01-20T13:01:32.401Z,97567.22
2023-01-20T13:04:34.486Z,97563.91
2023-01-20T13:07:15.599Z,97562.00
2023-01-20T13:09:58.062Z,97567.41
2023-01-20T13:12:37.716Z,97567.75
2023-01-20T13:15:18.794Z,97578.53
2023-01-20T13:18:08.974Z,97589.75
2023-01-20T13:20:41.216Z,97590.63
2023-01-20T13:23:14.131Z,97596.63
2023-01-20T13:25:43.460Z,97594.44
2023-01-20T13:28:17.774Z,97578.63
2023-01-20T13:30:51.385Z,97576.63
2023-01-20T13:33:32.776Z,97582.25
2023-01-20T13:36:01.950Z,97588.19
2023-01-20T13:38:35.365Z,97591.34
2023-01-20T13:41:06.106Z,97594.13
2023-01-20T13:43:50.439Z,97598.38
2023-01-20T13:46:48.551Z,97601.38
2023-01-20T13:49:47.821Z,97592.59
2023-01-20T13:52:16.253Z,97584.16
2023-01-20T13:54:46.632Z,97589.28
2023-01-20T13:57:44.976Z,97585.53
2023-01-20T14:00:15.619Z,97591.91
2023-01-20T14:02:46.617Z,97591.28
2023-01-20T14:05:22.791Z,97592.94
2023-01-20T14:07:50.974Z,97573.63
2023-01-20T14:10:20.443Z,97574.56
2023-01-20T14:12:48.533Z,97590.13
2023-01-20T14:15:38.187Z,97581.72
2023-01-20T14:18:15.525Z,97584.06
2023-01-20T14:20:46.521Z,97574.84
2023-01-20T14:23:35.822Z,97576.84
2023-01-20T14:26:07.110Z,97575.75
2023-01-20T14:28:35.766Z,97575.88
2023-01-20T14:31:24.121Z,97560.66
2023-01-20T14:33:59.579Z,97570.41
2023-01-20T14:36:31.355Z,97564.75
2023-01-20T14:39:03.922Z,97561.00
2023-01-20T14:41:36.273Z,97564.94
2023-01-20T14:44:04.938Z,97560.84
2023-01-20T14:46:35.261Z,97565.41
2023-01-20T14:49:06.166Z,97548.44
2023-01-20T14:51:34.831Z,97551.78
2023-01-20T14:54:38.199Z,97560.84
2023-01-20T14:57:28.077Z,97550.13
2023-01-20T15:00:14.769Z,97559.09
2023-01-20T15:02:45.832Z,97555.91
2023-01-20T15:05:30.896Z,97565.28
2023-01-20T15:08:18.841Z,97566.63
2023-01-20T15:10:47.245Z,97570.97
2023-01-20T15:13:26.145Z,97571.72
2023-01-20T15:16:08.205Z,97575.22
2023-01-20T15:18:36.455Z,97578.72
2023-01-20T15:21:23.550Z,97584.38
2023-01-20T15:23:52.742Z,97591.56
2023-01-20T15:26:27.001Z,97585.31
2023-01-20T15:28:55.985Z,97581.78
2023-01-20T15:31:25.221Z,97590.53
2023-01-20T15:33:53.291Z,97578.97
2023-01-20T15:36:29.825Z,97592.03
2023-01-20T15:38:57.985Z,97603.59
2023-01-20T15:41:25.953Z,97606.19
2023-01-20T15:43:54.011Z,97607.28
2023-01-20T15:46:22.121Z,97613.50
2023-01-20T15:48:50.240Z,97608.88
2023-01-20T15:51:19.999Z,97608.09
2023-01-20T15:53:49.968Z,97599.69
2023-01-20T15:56:22.205Z,97610.09
2023-01-20T15:58:51.309Z,97619.00
2023-01-20T16:01:24.058Z,97632.06
2023-01-20T16:03:52.883Z,97650.16
2023-01-20T16:06:23.459Z,97678.56
2023-01-20T16:08:52.913Z,97653.84
2023-01-20T16:11:21.392Z,97661.81
2023-01-20T16:13:49.440Z,97663.13
2023-01-20T16:16:19.624Z,97679.63
2023-01-20T16:18:48.274Z,97683.16
2023-01-20T16:21:17.987Z,97689.47
2023-01-20T16:23:46.726Z,97687.44
2023-01-20T16:26:22.821Z,97694.69
2023-01-20T16:28:50.998Z,97705.00
2023-01-20T16:31:19.364Z,97703.66
2023-01-20T16:33:50.105Z,97727.19
2023-01-20T16:36:19.594Z,97714.00
2023-01-20T16:38:48.615Z,97709.88
2023-01-20T16:41:21.958Z,97705.81
2023-01-20T16:43:50.952Z,97712.72
2023-01-20T16:46:21.457Z,97729.41
2023-01-20T16:48:50.020Z,97736.19
2023-01-20T16:51:19.817Z,97743.91
2023-01-20T16:53:49.220Z,97722.34
2023-01-20T16:56:18.956Z,97723.59
2023-01-20T16:58:51.788Z,97729.09
2023-01-20T17:01:24.508Z,97724.38
2023-01-20T17:03:54.255Z,97750.19
2023-01-20T17:06:24.849Z,97761.22
2023-01-20T17:08:54.569Z,97757.28
2023-01-20T17:11:24.111Z,97760.38
2023-01-20T17:13:54.109Z,97778.59
2023-01-20T17:16:23.126Z,97781.44
2023-01-20T17:18:51.801Z,97807.00
2023-01-20T17:21:21.680Z,97819.22
2023-01-20T17:23:52.293Z,97836.50
2023-01-20T17:26:21.404Z,97829.22
2023-01-20T17:28:49.965Z,97837.31
2023-01-20T17:31:19.502Z,97843.69
2023-01-20T17:33:47.869Z,97846.91
2023-01-20T17:36:16.765Z,97841.00
2023-01-20T17:38:45.404Z,97863.09
2023-01-20T17:41:14.642Z,97871.22
2023-01-20T17:43:45.948Z,97888.75
2023-01-20T17:46:16.452Z,97871.06
2023-01-20T17:48:46.664Z,97882.94
2023-01-20T17:51:16.267Z,97891.66
2023-01-20T17:53:44.837Z,97884.84
2023-01-20T17:56:14.058Z,97886.22
2023-01-20T17:58:44.050Z,97886.03
2023-01-20T18:01:14.435Z,97886.13
2023-01-20T18:03:43.497Z,97894.75
2023-01-20T18:06:15.152Z,97893.44
2023-01-20T18:08:43.664Z,97885.22
2023-01-20T18:11:15.065Z,97899.47
2023-01-20T18:13:43.658Z,97907.47
2023-01-20T18:16:13.809Z,97897.06
2023-01-20T18:18:43.372Z,97914.94
2023-01-20T18:21:15.739Z,97925.56
2023-01-20T18:23:46.240Z,97930.66
2023-01-20T18:26:15.717Z,97936.66
2023-01-20T18:28:44.175Z,97934.66
2023-01-20T18:31:14.774Z,97938.97
2023-01-20T18:33:45.410Z,97938.97
2023-01-20T18:36:17.901Z,97945.75
2023-01-20T18:38:51.006Z,97935.97
2023-01-20T18:41:19.273Z,97937.84
2023-01-20T18:43:48.057Z,97930.34
2023-01-20T18:46:16.616Z,97955.16
2023-01-20T18:48:46.572Z,97952.47
2023-01-20T18:51:19.429Z,97960.47
2023-01-20T18:53:54.838Z,97958.94
2023-01-20T18:56:23.255Z,97951.97
2023-01-20T18:58:51.459Z,97943.38
2023-01-20T19:01:22.032Z,97960.94
2023-01-20T19:03:50.617Z,97960.16
2023-01-20T19:06:21.952Z,97955.47
2023-01-20T19:08:50.675Z,97943.53
2023-01-20T19:11:20.835Z,97958.22
2023-01-20T19:13:50.141Z,97958.72
2023-01-20T19:16:19.443Z,97961.69
2023-01-20T19:18:54.115Z,97960.88
2023-01-20T19:21:24.938Z,97984.13
2023-01-20T19:23:54.528Z,97976.97
2023-01-20T19:26:24.067Z,97977.75
2023-01-20T19:28:57.987Z,97987.88
2023-01-20T19:31:26.333Z,97989.97
2023-01-20T19:33:54.500Z,97989.19
2023-01-20T19:36:24.352Z,97989.56
2023-01-20T19:38:52.809Z,98004.44
2023-01-20T19:41:22.959Z,97994.00
2023-01-20T19:43:55.428Z,98000.22
2023-01-20T19:46:24.511Z,98020.22
2023-01-20T19:48:52.749Z,98022.63
2023-01-20T19:51:21.505Z,98013.38
2023-01-20T19:53:55.659Z,98038.13
2023-01-20T19:56:23.707Z,98039.72
2023-01-20T19:58:54.409Z,98051.72
2023-01-20T20:01:24.369Z,98043.47
2023-01-20T20:03:54.311Z,98054.69
2023-01-20T20:06:28.255Z,98062.72
2023-01-20T20:09:00.400Z,98075.25
2023-01-20T20:11:28.990Z,98091.50
2023-01-20T20:13:57.828Z,98097.97
2023-01-20T20:16:27.663Z,98099.56
2023-01-20T20:18:56.984Z,98092.91
2023-01-20T20:21:25.526Z,98090.81
2023-01-20T20:23:55.213Z,98076.75
2023-01-20T20:26:27.441Z,98092.25
2023-01-20T20:28:55.929Z,98070.94
2023-01-20T20:31:29.265Z,98079.72
2023-01-20T20:33:58.316Z,98066.69
2023-01-20T20:36:28.473Z,98074.41
2023-01-20T20:38:58.423Z,98081.06
2023-01-20T20:41:30.581Z,98094.34
2023-01-20T20:43:59.209Z,98094.84
2023-01-20T20:46:27.757Z,98091.13
2023-01-20T20:48:56.199Z,98090.81
2023-01-20T20:51:24.852Z,98097.75
2023-01-20T20:53:55.150Z,98098.03
2023-01-20T20:56:24.579Z,98112.13
2023-01-20T20:59:01.437Z,98120.13
2023-01-20T21:01:31.659Z,98127.50
2023-01-20T21:04:00.700Z,98136.78
2023-01-20T21:06:29.422Z,98130.69
2023-01-20T21:08:58.804Z,98129.38
2023-01-20T21:11:27.106Z,98121.38
2023-01-20T21:13:56.736Z,98126.66
2023-01-20T21:16:25.554Z,98130.34
2023-01-20T21:18:56.229Z,98135.66
2023-01-20T21:21:25.384Z,98120.47
2023-01-20T21:23:54.895Z,98138.09
2023-01-20T21:26:24.296Z,98129.19
2023-01-20T21:28:53.129Z,98123.31
2023-01-20T21:31:26.526Z,98136.56
2023-01-20T21:33:57.049Z,98133.34
2023-01-20T21:36:26.231Z,98134.59
2023-01-20T21:38:54.464Z,98128.66
2023-01-20T21:41:22.925Z,98127.00
2023-01-20T21:44:08.657Z,98132.22
2023-01-20T21:46:40.294Z,98134.53
2023-01-20T21:49:26.643Z,98143.03
2023-01-20T21:52:12.299Z,98134.97
2023-01-20T21:54:41.660Z,98143.97
2023-01-20T21:57:10.322Z,98126.84
2023-01-20T21:59:39.233Z,98142.84
2023-01-20T22:02:09.187Z,98142.84
2023-01-20T22:04:37.309Z,98152.72
2023-01-20T22:07:05.327Z,98146.59
2023-01-20T22:09:33.493Z,98150.84
2023-01-20T22:12:01.692Z,98159.66
2023-01-20T22:14:33.340Z,98179.63
2023-01-20T22:17:01.571Z,98181.25
2023-01-20T22:19:31.743Z,98172.09
2023-01-20T22:22:01.137Z,98185.75
2023-01-20T22:24:29.236Z,98180.19
2023-01-20T22:26:58.083Z,98185.06
2023-01-20T22:29:26.423Z,98183.25
2023-01-20T22:31:55.823Z,98194.78
2023-01-20T22:34:24.014Z,98198.50
2023-01-20T22:36:53.472Z,98190.84
2023-01-20T22:39:21.650Z,98184.44
2023-01-20T22:41:49.914Z,98189.03
2023-01-20T22:44:17.907Z,98194.38
2023-01-20T22:46:45.975Z,98193.41
2023-01-20T22:49:14.093Z,98201.13
2023-01-20T22:51:42.196Z,98206.16
2023-01-20T22:54:11.976Z,98208.88
2023-01-20T22:56:40.292Z,98217.91
2023-01-20T22:59:08.447Z,98220.28
2023-01-20T23:01:37.410Z,98223.25
2023-01-20T23:04:07.106Z,98231.47
2023-01-20T23:06:39.413Z,98238.88
2023-01-20T23:09:09.846Z,98237.47
2023-01-20T23:11:40.215Z,98246.06
2023-01-20T23:14:13.352Z,98253.53
2023-01-20T23:16:42.108Z,98256.41
2023-01-20T23:19:10.988Z,98273.78
2023-01-20T23:21:39.445Z,98268.72
2023-01-20T23:24:09.051Z,98290.28
2023-01-20T23:26:38.632Z,98282.28
2023-01-20T23:29:06.755Z,98299.88
2023-01-20T23:31:35.376Z,98296.41
2023-01-20T23:34:03.708Z,98321.72
2023-01-20T23:36:31.890Z,98315.06
2023-01-20T23:38:59.976Z,98323.06
2023-01-20T23:41:28.032Z,98325.28
2023-01-20T23:43:57.677Z,98323.16
2023-01-20T23:46:25.811Z,98332.53
2023-01-20T23:48:53.852Z,98344.31
2023-01-20T23:51:21.927Z,98341.59
2023-01-20T23:53:50.034Z,98343.22
2023-01-20T23:56:20.085Z,98344.31
2023-01-20T23:58:48.435Z,98353.09
